Main page
METAR-TAF:

METAR-TAF

Airports :

Fritzlar Air Base

Fritzlar, Germany

latitude: 51-07N, longitude: 009-17E, elevation: 172 m

Current weather observation

The report was made 1 hour and 4 minutes ago, at 22:20 UTC
Wind 5 kt from the East/Northeast
Temperature 12°C
Humidity 44%
Pressure 1008 hPa
Visibility 10 km or more
Broken clouds at a height of 34000 ft

METAR: ETHF 222220Z 07005KT 9999 BKN340 12/M00 Q1008 BLU+

Time: 01:24 (23:24 UTC)


TAF: missing

Weather observations and forecasts of more than 4000 airports (METAR and TAF reports).

The available stations are represented by yellow and red dots on the map.

Hover mouse over dot to see the name of the station.

Then click to see weather observations and forecasts.

To change the map : click on the green buttons with a black cross to zoom in, on the green button with a dash to zoom out, or on the green arrows for adjacent maps.


METAR-TAF: